Time;durP1;ratioP1;P1;durP2;ratioP2;P2;SDS_P1;SDS_P2;PMS_P1;PMS_P2;Temp;Humidity;BMP_temperature;BMP_pressure;BME280_temperature;BME280_humidity;BME280_pressure;Samples;Min_cycle;Max_cycle;Signal;HPM_P1;HPM_P2
2022/10/16 00:02:05;;;;;;;;;;;;;;;16.72;67.54;95409.00;5053159;28;20006;-73
2022/10/16 00:04:30;;;;;;;;;;;;;;;16.71;67.57;95412.00;5053037;28;20005;-74
2022/10/16 00:06:55;;;;;;;;;;;;;;;16.72;67.75;95419.75;5051696;28;20049;-73
2022/10/16 00:09:20;;;;;;;;;;;;;;;16.72;67.75;95418.97;5051005;28;20598;-74
2022/10/16 00:11:45;;;;;;;;;;;;;;;16.69;67.73;95417.72;5052472;28;20024;-74
2022/10/16 00:14:12;;;;;;;;;;;;;;;16.67;67.81;95421.84;5051566;28;20362;-74
2022/10/16 00:16:38;;;;;;;;;;;;;;;16.64;67.99;95418.75;5052939;28;20484;-74
2022/10/16 00:19:03;;;;;;;;;;;;;;;16.63;67.75;95419.88;5051319;28;20109;-72
2022/10/16 00:21:29;;;;;;;;;;;;;;;16.60;67.79;95415.16;5051428;28;20017;-72
2022/10/16 00:23:56;;;;;;;;;;;;;;;16.58;68.16;95412.03;5052562;28;20014;-73
2022/10/16 00:26:22;;;;;;;;;;;;;;;16.58;67.91;95416.59;5037415;28;20048;-74
2022/10/16 00:28:48;;;;;;;;;;;;;;;16.56;68.01;95424.22;5032202;28;20014;-73
2022/10/16 00:31:13;;;;;;;;;;;;;;;16.56;68.12;95425.00;5033066;28;20010;-75
2022/10/16 00:33:39;;;;;;;;;;;;;;;16.58;68.15;95430.00;5032610;28;20067;-73
2022/10/16 00:36:06;;;;;;;;;;;;;;;16.57;67.97;95417.72;5043518;28;20427;-74
2022/10/16 00:38:31;;;;;;;;;;;;;;;16.58;68.10;95419.28;5051269;28;20018;-74
2022/10/16 00:40:57;;;;;;;;;;;;;;;16.58;68.16;95408.53;5052285;28;20018;-73
2022/10/16 00:43:34;;;;;;;;;;;;;;;16.59;68.10;95410.91;5051130;28;20497;-74
2022/10/16 00:46:00;;;;;;;;;;;;;;;16.57;68.38;95418.50;5052254;28;20675;-73
2022/10/16 00:48:26;;;;;;;;;;;;;;;16.57;68.94;95423.88;5050962;28;20016;-74
2022/10/16 00:50:51;;;;;;;;;;;;;;;16.61;68.93;95427.44;5049986;28;20017;-74
2022/10/16 00:53:17;;;;;;;;;;;;;;;16.61;69.02;95424.78;5051350;28;20010;-74
2022/10/16 00:55:42;;;;;;;;;;;;;;;16.65;68.85;95424.88;5051648;28;20010;-74
2022/10/16 00:58:08;;;;;;;;;;;;;;;16.69;68.71;95414.28;5050633;28;20518;-74
2022/10/16 01:00:33;;;;;;;;;;;;;;;16.69;68.52;95417.72;5049824;28;20039;-74
2022/10/16 01:02:59;;;;;;;;;;;;;;;16.67;68.89;95428.00;5050318;28;20010;-73
2022/10/16 01:05:44;;;;;;;;;;;;;;;16.69;68.77;95431.16;5050840;28;20053;-74
2022/10/16 01:08:16;;;;;;;;;;;;;;;16.64;68.78;95429.47;5051848;28;20009;-73
2022/10/16 01:10:50;;;;;;;;;;;;;;;16.69;68.59;95443.81;5051533;28;20024;-73
2022/10/16 01:13:21;;;;;;;;;;;;;;;16.67;68.71;95438.75;5051879;28;20020;-73
2022/10/16 01:15:58;;;;;;;;;;;;;;;16.67;68.80;95446.03;5051817;28;20405;-74
2022/10/16 01:18:29;;;;;;;;;;;;;;;16.71;68.69;95446.94;5051463;28;20009;-74
2022/10/16 01:20:57;;;;;;;;;;;;;;;16.72;68.70;95451.22;5051457;28;20059;-73
2022/10/16 01:23:28;;;;;;;;;;;;;;;16.74;68.32;95441.72;5050774;28;20048;-73
2022/10/16 01:26:06;;;;;;;;;;;;;;;16.76;68.03;95444.84;5050207;28;20018;-73
2022/10/16 01:28:51;;;;;;;;;;;;;;;16.75;68.01;95445.97;5049895;28;20048;-73
2022/10/16 01:31:18;;;;;;;;;;;;;;;16.77;68.09;95442.94;5050553;28;20466;-74
2022/10/16 01:33:45;;;;;;;;;;;;;;;16.76;68.08;95439.47;5050110;28;20013;-74
2022/10/16 01:36:13;;;;;;;;;;;;;;;16.79;67.92;95441.50;5049653;28;20524;-73
2022/10/16 01:38:39;;;;;;;;;;;;;;;16.83;67.71;95446.97;5050942;28;20059;-76
2022/10/16 01:41:09;;;;;;;;;;;;;;;16.81;67.55;95444.63;5050088;28;20064;-73
2022/10/16 01:43:36;;;;;;;;;;;;;;;16.80;67.64;95442.28;5050000;28;20016;-74
2022/10/16 01:46:02;;;;;;;;;;;;;;;16.81;67.54;95439.25;5051162;28;20013;-74
2022/10/16 01:48:29;;;;;;;;;;;;;;;16.80;67.47;95439.59;5049282;28;20010;-73
2022/10/16 01:50:57;;;;;;;;;;;;;;;16.81;67.59;95427.72;5049789;28;20009;-73
2022/10/16 01:53:23;;;;;;;;;;;;;;;16.83;67.67;95433.53;5049564;28;20017;-75
2022/10/16 01:55:49;;;;;;;;;;;;;;;16.85;67.45;95431.31;5049687;28;20013;-73
2022/10/16 01:58:14;;;;;;;;;;;;;;;16.88;67.50;95422.56;5050918;28;20397;-74
2022/10/16 02:00:41;;;;;;;;;;;;;;;16.95;67.38;95420.09;5048559;28;20492;-73
2022/10/16 02:03:07;;;;;;;;;;;;;;;16.95;67.35;95417.41;5049243;28;20009;-72
2022/10/16 02:05:43;;;;;;;;;;;;;;;16.95;67.32;95420.09;5049540;28;20016;-73
2022/10/16 02:08:08;;;;;;;;;;;;;;;16.97;67.27;95427.81;5049575;28;20104;-73
2022/10/16 02:10:35;;;;;;;;;;;;;;;16.95;67.12;95422.78;5050252;28;20143;-72
2022/10/16 02:13:03;;;;;;;;;;;;;;;16.93;67.06;95416.94;5082032;28;20013;-74
2022/10/16 02:15:29;;;;;;;;;;;;;;;16.89;67.23;95424.94;5049358;28;20010;-74
2022/10/16 02:17:54;;;;;;;;;;;;;;;16.84;67.44;95414.41;5050701;28;20006;-74
2022/10/16 02:20:22;;;;;;;;;;;;;;;16.81;67.74;95414.28;5049975;28;20497;-73
2022/10/16 02:22:49;;;;;;;;;;;;;;;16.81;67.95;95427.72;5050428;28;20494;-73
2022/10/16 02:25:22;;;;;;;;;;;;;;;16.79;67.85;95425.38;5048784;28;20010;-73
2022/10/16 02:28:07;;;;;;;;;;;;;;;16.79;67.67;95417.31;5050603;28;20016;-74
2022/10/16 02:30:36;;;;;;;;;;;;;;;16.74;67.81;95422.91;5048109;28;20377;-73
2022/10/16 02:33:03;;;;;;;;;;;;;;;16.78;67.82;95428.38;5049031;28;20009;-73
2022/10/16 02:35:31;;;;;;;;;;;;;;;16.75;67.71;95424.47;5046427;28;21292;-72
2022/10/16 02:37:57;;;;;;;;;;;;;;;16.77;67.62;95432.19;5049507;28;20006;-74
2022/10/16 02:40:22;;;;;;;;;;;;;;;16.75;67.32;95431.75;5048354;28;20024;-73
2022/10/16 02:42:50;;;;;;;;;;;;;;;16.72;67.62;95432.41;5050209;28;20062;-74
2022/10/16 02:45:15;;;;;;;;;;;;;;;16.69;67.75;95443.81;5048381;28;20021;-74
2022/10/16 02:47:40;;;;;;;;;;;;;;;16.68;67.52;95437.63;5049531;28;20072;-73
2022/10/16 02:50:05;;;;;;;;;;;;;;;16.66;67.49;95442.56;5048406;28;20016;-73
2022/10/16 02:52:31;;;;;;;;;;;;;;;16.62;67.78;95449.72;5049942;28;20045;-72
2022/10/16 02:54:56;;;;;;;;;;;;;;;16.60;67.79;95447.38;5048038;28;20128;-73
2022/10/16 02:57:21;;;;;;;;;;;;;;;16.58;67.63;95436.19;5048647;28;20079;-74
2022/10/16 02:59:46;;;;;;;;;;;;;;;16.54;67.45;95442.56;5048565;28;20092;-74
2022/10/16 03:02:12;;;;;;;;;;;;;;;16.51;67.82;95444.00;5047894;28;20028;-73
2022/10/16 03:04:37;;;;;;;;;;;;;;;16.47;67.87;95437.72;5049835;28;20005;-74
2022/10/16 03:07:03;;;;;;;;;;;;;;;16.46;67.73;95438.84;5049951;28;20481;-73
2022/10/16 03:09:28;;;;;;;;;;;;;;;16.45;67.77;95434.59;5049525;28;20062;-74
2022/10/16 03:11:53;;;;;;;;;;;;;;;16.41;67.97;95443.66;5048468;28;20112;-72
2022/10/16 03:14:18;;;;;;;;;;;;;;;16.41;67.96;95440.97;5049503;28;20009;-73
2022/10/16 03:16:43;;;;;;;;;;;;;;;16.46;67.77;95433.47;5052909;28;20016;-75
2022/10/16 03:19:09;;;;;;;;;;;;;;;16.50;67.71;95436.28;5053527;28;20092;-73
2022/10/16 03:21:34;;;;;;;;;;;;;;;16.56;67.73;95443.78;5053936;28;20020;-74
2022/10/16 03:23:59;;;;;;;;;;;;;;;16.54;68.03;95443.34;5052459;28;20454;-72
2022/10/16 03:26:24;;;;;;;;;;;;;;;16.62;67.86;95439.75;5053869;28;20477;-73
2022/10/16 03:28:49;;;;;;;;;;;;;;;16.74;67.68;95438.25;5053061;28;20032;-74
2022/10/16 03:31:15;;;;;;;;;;;;;;;16.86;67.55;95440.94;5053792;28;20435;-73
2022/10/16 03:33:40;;;;;;;;;;;;;;;16.90;66.80;95436.44;5053492;28;20063;-74
2022/10/16 03:36:06;;;;;;;;;;;;;;;17.05;67.04;95440.38;5052955;28;20010;-74
2022/10/16 03:38:32;;;;;;;;;;;;;;;17.15;66.43;95443.38;5053289;28;20013;-73
2022/10/16 03:40:57;;;;;;;;;;;;;;;17.12;65.68;95440.56;5052955;28;20075;-74
2022/10/16 03:43:22;;;;;;;;;;;;;;;17.27;66.10;95452.53;5053548;28;20013;-74
2022/10/16 03:45:47;;;;;;;;;;;;;;;17.37;65.85;95458.22;5053589;28;20485;-73
2022/10/16 03:48:12;;;;;;;;;;;;;;;17.48;65.37;95455.06;5051707;28;20006;-74
2022/10/16 03:50:38;;;;;;;;;;;;;;;17.59;65.40;95456.16;5052972;28;20020;-73
2022/10/16 03:53:03;;;;;;;;;;;;;;;17.62;64.46;95453.56;5053207;28;20037;-73
2022/10/16 03:55:28;;;;;;;;;;;;;;;17.73;64.81;95439.69;5052228;28;20014;-74
2022/10/16 03:57:53;;;;;;;;;;;;;;;17.76;64.04;95438.97;5052112;28;20013;-73
2022/10/16 04:00:19;;;;;;;;;;;;;;;17.84;64.24;95446.13;5052234;28;20016;-73
2022/10/16 04:02:44;;;;;;;;;;;;;;;17.89;64.04;95452.06;5053126;28;20017;-76
2022/10/16 04:05:09;;;;;;;;;;;;;;;17.92;63.85;95448.69;5051542;28;20479;-73
2022/10/16 04:07:35;;;;;;;;;;;;;;;17.74;63.31;95443.94;5051870;28;20052;-74
2022/10/16 04:10:00;;;;;;;;;;;;;;;17.92;63.50;95446.00;5052136;28;20010;-73
2022/10/16 04:12:26;;;;;;;;;;;;;;;17.93;63.08;95444.88;5051859;28;20044;-74
2022/10/16 04:14:51;;;;;;;;;;;;;;;18.03;63.16;95438.22;5051517;28;20013;-74
2022/10/16 04:17:16;;;;;;;;;;;;;;;17.86;63.11;95439.31;5052923;28;20060;-74
2022/10/16 04:19:41;;;;;;;;;;;;;;;17.90;63.28;95448.22;5051294;28;20067;-73
2022/10/16 04:22:07;;;;;;;;;;;;;;;18.02;63.11;95442.03;5052775;28;20021;-74
2022/10/16 04:24:32;;;;;;;;;;;;;;;18.11;62.88;95445.31;5051444;28;20104;-73
2022/10/16 04:26:57;;;;;;;;;;;;;;;18.12;62.70;95446.13;5051206;28;20021;-74
2022/10/16 04:29:22;;;;;;;;;;;;;;;18.19;62.36;95451.69;5051541;28;20112;-74
2022/10/16 04:31:47;;;;;;;;;;;;;;;18.22;62.42;95450.22;5051542;28;20103;-74
2022/10/16 04:34:13;;;;;;;;;;;;;;;18.13;61.86;95451.16;5052287;28;20023;-73
2022/10/16 04:36:38;;;;;;;;;;;;;;;18.22;61.95;95458.28;5051526;28;20062;-73
2022/10/16 04:39:03;;;;;;;;;;;;;;;18.26;62.31;95451.88;5051853;28;20010;-75
2022/10/16 04:41:28;;;;;;;;;;;;;;;18.31;61.85;95450.84;5051121;28;20501;-74
2022/10/16 04:43:53;;;;;;;;;;;;;;;18.33;61.92;95452.06;5051021;28;20010;-74
2022/10/16 04:46:19;;;;;;;;;;;;;;;18.38;61.83;95456.44;5052817;28;20013;-75
2022/10/16 04:48:44;;;;;;;;;;;;;;;18.43;61.77;95451.56;5050875;28;20009;-74
2022/10/16 04:51:09;;;;;;;;;;;;;;;18.47;61.51;95448.94;5051413;28;20021;-74
2022/10/16 04:53:34;;;;;;;;;;;;;;;18.46;61.24;95442.00;5051706;28;20013;-74
2022/10/16 04:56:00;;;;;;;;;;;;;;;18.50;61.06;95439.41;5051086;28;20010;-74
2022/10/16 04:58:25;;;;;;;;;;;;;;;18.48;60.84;95445.16;5052296;28;20508;-75
2022/10/16 05:00:50;;;;;;;;;;;;;;;18.55;60.91;95447.22;5052399;28;20482;-75
2022/10/16 05:03:15;;;;;;;;;;;;;;;18.57;60.89;95453.81;5052478;28;20013;-74
2022/10/16 05:05:44;;;;;;;;;;;;;;;18.58;60.76;95455.41;5054459;28;20041;-75
2022/10/16 05:08:10;;;;;;;;;;;;;;;18.52;60.49;95454.06;5072414;28;20089;-75
2022/10/16 05:10:35;;;;;;;;;;;;;;;18.55;60.90;95453.41;5072081;28;20045;-75
2022/10/16 05:13:00;;;;;;;;;;;;;;;18.54;60.80;95443.75;5070780;28;20061;-74
2022/10/16 05:15:26;;;;;;;;;;;;;;;18.57;60.43;95451.13;5072394;28;20092;-73
2022/10/16 05:17:54;;;;;;;;;;;;;;;18.61;60.47;95451.22;5046781;28;20022;-73
2022/10/16 05:20:20;;;;;;;;;;;;;;;18.62;60.37;95458.16;5047228;28;20042;-74
2022/10/16 05:22:45;;;;;;;;;;;;;;;18.63;60.53;95460.53;5047403;28;20494;-73
2022/10/16 05:25:10;;;;;;;;;;;;;;;18.61;60.03;95462.78;5032139;28;20014;-73
2022/10/16 05:27:35;;;;;;;;;;;;;;;18.62;60.25;95458.16;5047353;28;20394;-73
2022/10/16 05:30:01;;;;;;;;;;;;;;;18.57;60.38;95444.97;5066863;28;20159;-73
2022/10/16 05:32:26;;;;;;;;;;;;;;;18.57;60.28;95445.72;5071428;28;20009;-74
2022/10/16 05:34:51;;;;;;;;;;;;;;;18.56;59.95;95464.94;5071225;28;20096;-75
2022/10/16 05:37:17;;;;;;;;;;;;;;;18.52;60.16;95469.47;5069426;28;20096;-74
2022/10/16 05:39:42;;;;;;;;;;;;;;;18.49;60.39;95468.25;5070907;28;20012;-73
2022/10/16 05:42:07;;;;;;;;;;;;;;;18.47;60.48;95467.81;5048696;28;20099;-73
2022/10/16 05:44:32;;;;;;;;;;;;;;;18.47;60.68;95483.19;5051130;28;20417;-74
2022/10/16 05:46:57;;;;;;;;;;;;;;;18.42;60.44;95478.81;5050711;28;20473;-74
2022/10/16 05:49:23;;;;;;;;;;;;;;;18.39;60.62;95477.63;5049425;28;20422;-74
2022/10/16 05:51:48;;;;;;;;;;;;;;;18.36;60.66;95480.22;5051063;28;20100;-74
2022/10/16 05:54:13;;;;;;;;;;;;;;;18.32;60.68;95482.03;5050420;28;20014;-72
2022/10/16 05:56:38;;;;;;;;;;;;;;;18.28;60.57;95486.56;5049785;28;20016;-74
2022/10/16 05:59:04;;;;;;;;;;;;;;;18.19;60.87;95484.00;5050560;28;20010;-74
2022/10/16 06:01:30;;;;;;;;;;;;;;;18.11;60.88;95483.03;5050967;28;20433;-74
2022/10/16 06:03:56;;;;;;;;;;;;;;;18.05;60.97;95487.09;5050433;28;20096;-74
2022/10/16 06:06:23;;;;;;;;;;;;;;;18.03;61.25;95486.66;5049352;28;20649;-74
2022/10/16 06:08:49;;;;;;;;;;;;;;;17.98;61.30;95488.81;5049222;28;20128;-75
2022/10/16 06:11:18;;;;;;;;;;;;;;;17.93;61.34;95493.31;5050828;28;20104;-75
2022/10/16 06:13:45;;;;;;;;;;;;;;;17.91;61.48;95497.44;5050530;28;20113;-75
2022/10/16 06:16:11;;;;;;;;;;;;;;;17.89;61.63;95495.09;5049660;28;20006;-74
2022/10/16 06:18:36;;;;;;;;;;;;;;;17.86;61.73;95500.38;5049260;28;20119;-74
2022/10/16 06:21:07;;;;;;;;;;;;;;;17.86;61.62;95500.38;5050311;28;20014;-73
2022/10/16 06:23:32;;;;;;;;;;;;;;;17.87;61.87;95505.44;5049107;28;20031;-73
2022/10/16 06:26:04;;;;;;;;;;;;;;;17.91;62.05;95505.53;5049776;28;20426;-75
2022/10/16 06:28:29;;;;;;;;;;;;;;;17.96;61.75;95504.50;5050140;28;20017;-75
2022/10/16 06:31:01;;;;;;;;;;;;;;;18.00;61.69;95516.94;5048812;28;20009;-74
2022/10/16 06:33:26;;;;;;;;;;;;;;;18.01;61.85;95521.19;5049183;28;20496;-75
2022/10/16 06:35:52;;;;;;;;;;;;;;;18.01;61.59;95515.81;5049542;28;20067;-74
2022/10/16 06:38:17;;;;;;;;;;;;;;;18.02;61.60;95524.69;5050013;28;20100;-76
2022/10/16 06:40:42;;;;;;;;;;;;;;;18.01;61.75;95521.19;5048864;28;20013;-74
2022/10/16 06:43:07;;;;;;;;;;;;;;;18.01;61.52;95525.78;5049038;28;20486;-73
2022/10/16 06:45:32;;;;;;;;;;;;;;;17.99;61.42;95534.22;5050053;28;20017;-73
2022/10/16 06:47:58;;;;;;;;;;;;;;;17.99;61.69;95534.22;5049413;28;20064;-74
2022/10/16 06:50:23;;;;;;;;;;;;;;;17.97;61.55;95541.88;5048785;28;20095;-75
2022/10/16 06:52:48;;;;;;;;;;;;;;;17.97;61.99;95536.47;5048711;28;20104;-73
2022/10/16 06:55:14;;;;;;;;;;;;;;;17.97;61.76;95536.47;5049160;28;20080;-73
2022/10/16 06:57:39;;;;;;;;;;;;;;;18.00;61.78;95548.47;5050087;28;20006;-74
2022/10/16 07:00:05;;;;;;;;;;;;;;;18.00;61.83;95553.84;5049440;28;20051;-75
2022/10/16 07:02:30;;;;;;;;;;;;;;;18.05;61.77;95545.53;5048346;28;20459;-74
2022/10/16 07:04:56;;;;;;;;;;;;;;;18.10;61.67;95551.44;5049273;28;20014;-74
2022/10/16 07:07:24;;;;;;;;;;;;;;;18.14;61.54;95549.66;5050041;28;20538;-73
2022/10/16 07:09:49;;;;;;;;;;;;;;;18.21;61.65;95545.59;5049600;28;20005;-73
2022/10/16 07:12:14;;;;;;;;;;;;;;;18.28;61.46;95559.25;5049815;28;20020;-73
2022/10/16 07:14:40;;;;;;;;;;;;;;;18.33;61.20;95559.00;5048613;28;20416;-74
2022/10/16 07:17:05;;;;;;;;;;;;;;;18.35;60.94;95554.06;5048792;28;20021;-74
2022/10/16 07:19:30;;;;;;;;;;;;;;;18.42;61.02;95557.72;5049088;28;20021;-74
2022/10/16 07:21:56;;;;;;;;;;;;;;;18.48;60.95;95568.25;5049554;28;20020;-74
2022/10/16 07:24:22;;;;;;;;;;;;;;;18.50;61.08;95571.41;5049660;28;20514;-74
2022/10/16 07:26:47;;;;;;;;;;;;;;;18.56;60.97;95564.63;5049581;28;20175;-75
2022/10/16 07:29:14;;;;;;;;;;;;;;;18.60;60.78;95579.75;5047462;28;20368;-73
2022/10/16 07:31:40;;;;;;;;;;;;;;;18.65;60.84;95573.34;5049982;28;20006;-75
2022/10/16 07:34:05;;;;;;;;;;;;;;;18.67;60.69;95579.16;5048104;28;20010;-74
2022/10/16 07:36:30;;;;;;;;;;;;;;;18.76;60.75;95581.72;5048349;28;20010;-74
2022/10/16 07:38:55;;;;;;;;;;;;;;;18.85;60.49;95590.44;5047828;28;20440;-73
2022/10/16 07:41:20;;;;;;;;;;;;;;;18.95;60.58;95589.94;5048651;28;20783;-73
2022/10/16 07:43:47;;;;;;;;;;;;;;;19.03;60.28;95597.06;5049569;28;20012;-74
2022/10/16 07:46:12;;;;;;;;;;;;;;;19.09;59.86;95592.19;5049432;28;20014;-73
2022/10/16 07:48:38;;;;;;;;;;;;;;;19.23;59.62;95606.03;5049257;28;20012;-74
2022/10/16 07:51:04;;;;;;;;;;;;;;;19.33;59.31;95599.34;5049417;28;20016;-73
2022/10/16 07:53:29;;;;;;;;;;;;;;;19.40;59.15;95610.31;5048532;28;20459;-74
2022/10/16 07:55:58;;;;;;;;;;;;;;;19.47;58.92;95610.50;5048056;28;20016;-73
2022/10/16 07:58:24;;;;;;;;;;;;;;;19.54;58.62;95617.97;5047595;28;20009;-73
2022/10/16 08:00:49;;;;;;;;;;;;;;;19.65;58.42;95616.31;5050261;28;20020;-74
2022/10/16 08:03:14;;;;;;;;;;;;;;;19.78;58.25;95619.72;5053034;28;20057;-75
2022/10/16 08:05:39;;;;;;;;;;;;;;;19.89;57.80;95615.34;5053281;28;20064;-74
2022/10/16 08:08:04;;;;;;;;;;;;;;;20.03;57.55;95610.25;5053000;28;20587;-75
2022/10/16 08:10:31;;;;;;;;;;;;;;;20.13;57.36;95617.03;5052688;28;20827;-73
2022/10/16 08:12:56;;;;;;;;;;;;;;;20.30;56.99;95619.31;5052720;28;20013;-73
2022/10/16 08:15:21;;;;;;;;;;;;;;;20.44;56.73;95614.19;5052445;28;20013;-73
2022/10/16 08:17:57;;;;;;;;;;;;;;;20.55;56.48;95614.44;5053104;28;20043;-74
2022/10/16 08:20:22;;;;;;;;;;;;;;;20.69;56.17;95620.13;5052661;28;20014;-74
2022/10/16 08:22:48;;;;;;;;;;;;;;;20.76;55.58;95620.25;5052978;28;20445;-75
2022/10/16 08:25:13;;;;;;;;;;;;;;;20.84;55.11;95621.19;5052940;28;20009;-72
2022/10/16 08:27:38;;;;;;;;;;;;;;;20.95;55.70;95621.38;5051716;28;20025;-69
2022/10/16 08:30:03;;;;;;;;;;;;;;;21.24;55.34;95625.38;5051917;28;20006;-69
2022/10/16 08:32:29;;;;;;;;;;;;;;;21.43;54.47;95624.56;5050859;28;20556;-70
2022/10/16 08:34:54;;;;;;;;;;;;;;;21.54;53.86;95625.50;5051945;28;20045;-70
2022/10/16 08:37:19;;;;;;;;;;;;;;;21.71;53.99;95626.97;5052393;28;20045;-70
2022/10/16 08:39:44;;;;;;;;;;;;;;;21.91;53.48;95627.66;5051935;28;20097;-70
2022/10/16 08:42:15;;;;;;;;;;;;;;;21.97;52.52;95629.66;5052154;28;20577;-69
2022/10/16 08:44:40;;;;;;;;;;;;;;;22.10;51.99;95641.06;5051230;28;20067;-69
2022/10/16 08:47:24;;;;;;;;;;;;;;;22.11;51.57;95636.44;5052050;28;20002;-70
2022/10/16 08:49:57;;;;;;;;;;;;;;;21.92;50.87;95642.75;5051874;28;20025;-70
2022/10/16 08:52:25;;;;;;;;;;;;;;;22.40;50.97;95643.81;5051925;28;20006;-70
2022/10/16 08:54:51;;;;;;;;;;;;;;;22.61;50.76;95654.16;5050757;28;20393;-70
2022/10/16 08:57:20;;;;;;;;;;;;;;;22.71;50.24;95650.00;5050678;28;20002;-70
2022/10/16 08:59:45;;;;;;;;;;;;;;;22.79;49.88;95646.25;5050339;28;20500;-72
2022/10/16 09:02:20;;;;;;;;;;;;;;;22.89;50.26;95653.75;5051952;28;20014;-69
2022/10/16 09:04:57;;;;;;;;;;;;;;;23.03;49.88;95653.13;5050648;28;20124;-68
2022/10/16 09:07:31;;;;;;;;;;;;;;;23.18;49.75;95652.09;5050428;28;20485;-69
2022/10/16 09:10:10;;;;;;;;;;;;;;;23.12;49.16;95653.59;5049974;28;20014;-72
2022/10/16 09:12:44;;;;;;;;;;;;;;;23.29;48.32;95652.25;5049373;28;20009;-72
2022/10/16 09:15:31;;;;;;;;;;;;;;;23.26;47.95;95658.41;5049926;28;20031;-69
2022/10/16 09:18:06;;;;;;;;;;;;;;;23.29;47.39;95655.72;5051016;28;20125;-71
2022/10/16 09:20:37;;;;;;;;;;;;;;;23.31;47.19;95653.41;5050579;28;20044;-71
2022/10/16 09:23:21;;;;;;;;;;;;;;;23.23;46.65;95649.06;5050710;28;20006;-69
2022/10/16 09:25:48;;;;;;;;;;;;;;;23.15;46.02;95652.09;5048627;28;20027;-70
2022/10/16 09:28:14;;;;;;;;;;;;;;;23.25;45.84;95659.56;5057589;28;20014;-73
2022/10/16 09:30:39;;;;;;;;;;;;;;;23.29;45.48;95653.03;5056759;28;20017;-71
2022/10/16 09:33:05;;;;;;;;;;;;;;;23.42;45.61;95660.88;5055013;28;20010;-72
2022/10/16 09:35:33;;;;;;;;;;;;;;;23.48;45.40;95646.56;5051083;28;20006;-71
2022/10/16 09:37:58;;;;;;;;;;;;;;;23.53;45.28;95654.38;5050625;28;20481;-71
2022/10/16 09:40:29;;;;;;;;;;;;;;;23.60;47.67;95659.13;5049615;28;20010;-74
2022/10/16 09:43:13;;;;;;;;;;;;;;;23.84;47.30;95660.47;5051742;28;20474;-73
2022/10/16 09:45:39;;;;;;;;;;;;;;;23.97;46.74;95661.75;5050772;28;20014;-77
2022/10/16 09:48:11;;;;;;;;;;;;;;;24.00;45.39;95671.06;5050610;28;20009;-76
2022/10/16 09:50:36;;;;;;;;;;;;;;;24.05;45.46;95668.78;5050794;28;20063;-75
2022/10/16 09:53:11;;;;;;;;;;;;;;;24.11;45.77;95670.00;5050597;28;20013;-76
2022/10/16 09:55:36;;;;;;;;;;;;;;;24.23;45.42;95679.78;5049382;28;20013;-77
2022/10/16 09:58:01;;;;;;;;;;;;;;;24.31;44.55;95678.69;5049985;28;20100;-75
2022/10/16 10:00:26;;;;;;;;;;;;;;;24.41;44.50;95681.84;5050499;28;20014;-75
2022/10/16 10:02:54;;;;;;;;;;;;;;;24.46;44.86;95678.78;5051060;28;20200;-75
2022/10/16 10:05:22;;;;;;;;;;;;;;;24.55;43.91;95679.22;5051243;28;20002;-73
2022/10/16 10:07:53;;;;;;;;;;;;;;;24.51;43.46;95672.97;5050714;28;20458;-78
2022/10/16 10:10:20;;;;;;;;;;;;;;;24.64;42.86;95672.28;5051118;28;20497;-77
2022/10/16 10:12:46;;;;;;;;;;;;;;;24.70;42.22;95666.47;5051266;28;20412;-78
2022/10/16 10:15:12;;;;;;;;;;;;;;;24.77;43.57;95669.22;5050261;28;20014;-76
2022/10/16 10:17:47;;;;;;;;;;;;;;;24.78;42.32;95674.28;5051471;28;20009;-77
2022/10/16 10:20:25;;;;;;;;;;;;;;;24.82;41.80;95677.78;5046296;28;20406;-76
2022/10/16 10:22:50;;;;;;;;;;;;;;;24.86;42.78;95672.38;5046601;28;20014;-77
2022/10/16 10:25:25;;;;;;;;;;;;;;;24.94;41.75;95682.13;5036569;28;20105;-76
2022/10/16 10:27:53;;;;;;;;;;;;;;;24.96;40.46;95681.72;5083553;28;20539;-76
2022/10/16 10:30:33;;;;;;;;;;;;;;;25.07;42.17;95679.84;5050976;28;20010;-77
2022/10/16 10:33:21;;;;;;;;;;;;;;;25.14;41.00;95677.94;5067533;28;20098;-76
2022/10/16 10:35:49;;;;;;;;;;;;;;;24.61;41.05;95686.63;5031318;28;20017;-77
2022/10/16 10:38:33;;;;;;;;;;;;;;;25.16;40.40;95680.28;5030824;28;20060;-77
2022/10/16 10:41:14;;;;;;;;;;;;;;;25.44;41.38;95673.31;5041352;28;20063;-77
2022/10/16 10:43:42;;;;;;;;;;;;;;;25.38;40.89;95675.66;5051069;28;20014;-77
2022/10/16 10:46:11;;;;;;;;;;;;;;;25.58;40.10;95678.78;5050832;28;20473;-77
2022/10/16 10:48:55;;;;;;;;;;;;;;;25.67;39.50;95679.19;5050323;28;20036;-76
2022/10/16 10:51:24;;;;;;;;;;;;;;;24.86;39.67;95675.84;5050740;28;20010;-75
2022/10/16 10:53:58;;;;;;;;;;;;;;;24.84;40.06;95680.91;5051156;28;20413;-76
2022/10/16 10:56:29;;;;;;;;;;;;;;;25.07;41.05;95679.84;5045875;23;20028;-68
2022/10/16 10:59:11;;;;;;;;;;;;;;;25.52;40.13;95683.06;5028563;28;20016;-69
2022/10/16 11:01:46;;;;;;;;;;;;;;;25.19;39.21;95687.69;5028287;28;20028;-69
2022/10/16 11:04:20;;;;;;;;;;;;;;;25.79;39.35;95672.59;5030229;28;20005;-69
2022/10/16 11:06:55;;;;;;;;;;;;;;;25.71;38.80;95671.81;5029821;28;20006;-68
2022/10/16 11:09:23;;;;;;;;;;;;;;;25.80;39.81;95674.97;5027865;28;20020;-69
2022/10/16 11:11:56;;;;;;;;;;;;;;;25.81;39.57;95668.34;5027937;28;20010;-69
2022/10/16 11:14:34;;;;;;;;;;;;;;;25.63;36.42;95670.22;5028924;28;20014;-69
2022/10/16 11:17:06;;;;;;;;;;;;;;;25.47;36.57;95673.34;5029981;28;20474;-69
2022/10/16 11:19:37;;;;;;;;;;;;;;;25.10;36.51;95673.66;5027432;28;20009;-69
2022/10/16 11:22:22;;;;;;;;;;;;;;;25.14;35.82;95672.50;5028408;28;20526;-69
2022/10/16 11:25:02;;;;;;;;;;;;;;;25.95;38.19;95673.00;5029911;28;20013;-69
2022/10/16 11:27:43;;;;;;;;;;;;;;;25.47;36.17;95678.78;5029865;28;20453;-69
2022/10/16 11:30:15;;;;;;;;;;;;;;;25.54;35.66;95667.09;5027178;28;20014;-69
2022/10/16 11:32:49;;;;;;;;;;;;;;;25.51;35.83;95678.78;5027470;28;20067;-68
2022/10/16 11:35:18;;;;;;;;;;;;;;;26.00;35.75;95671.81;5029708;28;20002;-67
2022/10/16 11:37:46;;;;;;;;;;;;;;;24.96;34.80;95676.28;5033704;28;20518;-65
2022/10/16 11:40:14;;;;;;;;;;;;;;;25.77;35.70;95664.81;5031053;28;20009;-67
2022/10/16 11:42:46;;;;;;;;;;;;;;;25.93;35.24;95661.72;5033217;28;20429;-68
2022/10/16 11:45:27;;;;;;;;;;;;;;;25.82;34.68;95661.72;5032504;28;20056;-68
2022/10/16 11:48:12;;;;;;;;;;;;;;;25.61;34.75;95678.03;5033572;28;20006;-69
2022/10/16 11:50:44;;;;;;;;;;;;;;;25.87;35.13;95669.50;5028038;28;20104;-68
2022/10/16 11:53:12;;;;;;;;;;;;;;;25.96;34.38;95666.38;5032269;28;20060;-68
2022/10/16 11:55:39;;;;;;;;;;;;;;;26.52;34.34;95672.19;5032700;28;20013;-70
2022/10/16 11:58:17;;;;;;;;;;;;;;;26.22;34.87;95664.41;5045278;28;20020;-69
2022/10/16 12:00:51;;;;;;;;;;;;;;;26.65;34.86;95667.81;5052877;28;20009;-69
2022/10/16 12:03:19;;;;;;;;;;;;;;;25.94;34.56;95668.72;5038535;28;20075;-69
2022/10/16 12:06:03;;;;;;;;;;;;;;;26.18;34.34;95665.19;5033543;28;20006;-69
2022/10/16 12:08:29;;;;;;;;;;;;;;;26.51;33.50;95671.38;5033145;28;20012;-70
2022/10/16 12:11:05;;;;;;;;;;;;;;;26.71;33.81;95666.25;5030798;28;20014;-71
2022/10/16 12:13:32;;;;;;;;;;;;;;;26.72;34.37;95667.00;5048257;28;20067;-70
2022/10/16 12:16:19;;;;;;;;;;;;;;;26.70;35.47;95664.69;5035739;28;20382;-74
2022/10/16 12:18:45;;;;;;;;;;;;;;;26.49;34.93;95675.69;5033985;28;20033;-70
2022/10/16 12:21:13;;;;;;;;;;;;;;;26.02;35.17;95669.50;5033133;28;20092;-69
2022/10/16 12:23:52;;;;;;;;;;;;;;;26.37;34.02;95664.00;5032379;28;20371;-68
2022/10/16 12:26:29;;;;;;;;;;;;;;;26.22;32.36;95665.19;5031065;28;20011;-69
2022/10/16 12:28:55;;;;;;;;;;;;;;;26.70;33.60;95659.25;5047630;28;20059;-70
2022/10/16 12:31:20;;;;;;;;;;;;;;;26.86;33.57;95658.78;5046144;28;20056;-69
2022/10/16 12:33:55;;;;;;;;;;;;;;;26.81;33.80;95662.69;5033028;28;20006;-69
2022/10/16 12:36:29;;;;;;;;;;;;;;;27.01;34.09;95654.81;5031823;28;20557;-69
2022/10/16 12:38:54;;;;;;;;;;;;;;;26.93;34.74;95661.50;5031257;28;20017;-69
2022/10/16 12:41:26;;;;;;;;;;;;;;;25.89;34.49;95658.19;5029970;28;20014;-69
2022/10/16 12:43:51;;;;;;;;;;;;;;;26.56;33.23;95664.72;5038722;28;20022;-68
2022/10/16 12:46:17;;;;;;;;;;;;;;;26.58;32.88;95651.50;5031080;28;20010;-69
2022/10/16 12:48:44;;;;;;;;;;;;;;;26.45;33.40;95656.59;5032630;28;20680;-66
2022/10/16 12:51:21;;;;;;;;;;;;;;;26.82;33.96;95649.81;5030128;28;20014;-67
2022/10/16 12:53:57;;;;;;;;;;;;;;;27.03;32.94;95648.97;5033032;28;20005;-67